Time;durP1;ratioP1;P1;durP2;ratioP2;P2;SDS_P1;SDS_P2;PMS_P1;PMS_P2;Temp;Humidity;BMP_temperature;BMP_pressure;BME280_temperature;BME280_humidity;BME280_pressure;Samples;Min_cycle;Max_cycle;Signal;HPM_P1;HPM_P2
2022/11/11 05:46:05;;;;;;;4.72;2.97;;;;;;;4.97;77.20;101077.94;6137597;23;20778;-90
2022/11/11 05:51:54;;;;;;;3.50;2.92;;;;;;;5.00;76.88;101093.53;6135858;23;20158;-89
2022/11/11 05:54:39;;;;;;;3.30;3.00;;;;;;;4.93;76.50;101100.59;6135394;23;20191;-90
2022/11/11 05:57:23;;;;;;;4.65;3.20;;;;;;;4.86;77.10;101102.44;6136697;23;20611;-89
2022/11/11 06:00:11;;;;;;;4.53;3.30;;;;;;;4.87;77.10;101109.34;6131807;23;20194;-89
2022/11/11 06:03:11;;;;;;;;;;;;;;;;;;;;;
2022/11/11 06:05:59;;;;;;;7.82;4.38;;;;;;;4.95;77.18;101117.03;6132204;23;20154;-90
2022/11/11 06:08:46;;;;;;;5.30;3.83;;;;;;;5.00;77.25;101111.78;6133285;23;20202;-90
2022/11/11 06:11:31;;;;;;;6.05;4.72;;;;;;;5.04;76.94;101121.25;6135910;23;20589;-91
2022/11/11 06:14:17;;;;;;;5.90;3.67;;;;;;;5.06;76.72;101120.31;6135917;23;20171;-90
2022/11/11 06:17:01;;;;;;;3.70;3.00;;;;;;;5.09;76.66;101122.03;6135200;23;20158;-89
2022/11/11 06:19:45;;;;;;;7.75;3.72;;;;;;;5.08;76.61;101133.34;6135674;23;20159;-89
2022/11/11 06:23:10;;;;;;;;;;;;;;;;;;;;;
2022/11/11 06:29:22;;;;;;;5.65;4.38;;;;;;;4.90;76.81;101138.84;6017197;23;20207;-91
2022/11/11 06:32:19;;;;;;;3.75;3.55;;;;;;;4.83;77.05;101146.75;5965730;24;20328;-91
2022/11/11 06:35:04;;;;;;;3.35;3.00;;;;;;;4.75;77.04;101142.50;5986063;24;20202;-90
2022/11/11 06:38:01;;;;;;;;;;;;;;;;;;;;;
2022/11/11 06:40:52;;;;;;;5.32;4.10;;;;;;;4.66;77.47;101157.38;5973459;24;20631;-92
2022/11/11 06:44:01;;;;;;;;;;;;;;;;;;;;;
2022/11/11 06:46:45;;;;;;;4.10;3.70;;;;;;;4.68;77.26;101151.31;6010652;23;20181;-93
2022/11/11 06:49:32;;;;;;;6.00;4.63;;;;;;;4.73;77.49;101159.94;6100041;23;20155;-90
2022/11/11 06:52:25;;;;;;;5.97;4.85;;;;;;;4.79;77.75;101163.28;6095524;23;20188;-92
2022/11/11 06:55:20;;;;;;;;;;;;;;;;;;;;;
2022/11/11 06:58:18;;;;;;;;;;;;;;;;;;;;;
2022/11/11 07:01:13;;;;;;;7.15;4.80;;;;;;;5.00;76.79;101164.72;6123178;23;20253;-93
2022/11/11 07:03:56;;;;;;;7.15;5.85;;;;;;;5.06;76.81;101166.34;6121746;23;20233;-92
2022/11/11 07:06:43;;;;;;;8.02;5.93;;;;;;;5.13;76.47;101169.69;6103373;23;20159;-92
2022/11/11 07:09:29;;;;;;;7.80;5.60;;;;;;;5.21;76.58;101170.44;6108671;23;20154;-91
2022/11/11 07:12:23;;;;;;;6.45;5.20;;;;;;;5.32;76.32;101160.72;6106872;23;20159;-93
2022/11/11 07:15:10;;;;;;;6.38;5.20;;;;;;;5.44;75.92;101155.28;6097757;23;20231;-91
2022/11/11 07:17:58;;;;;;;10.48;6.00;;;;;;;5.54;75.68;101153.38;6102042;23;20277;-91
2022/11/11 07:20:42;;;;;;;9.45;6.57;;;;;;;5.64;75.88;101167.94;6100531;23;20156;-92
2022/11/11 07:23:27;;;;;;;6.88;5.63;;;;;;;5.72;75.46;101168.66;6078737;23;20263;-92
2022/11/11 07:26:18;;;;;;;6.97;5.80;;;;;;;5.81;75.55;101154.63;6099962;23;20152;-91
2022/11/11 07:29:02;;;;;;;5.88;5.28;;;;;;;5.91;75.29;101169.19;6102820;23;20211;-91
2022/11/11 07:31:55;;;;;;;7.28;6.60;;;;;;;6.00;75.21;101165.59;6081301;23;20160;-92
2022/11/11 07:34:49;;;;;;;;;;;;;;;;;;;;;
2022/11/11 07:37:43;;;;;;;12.82;9.02;;;;;;;6.08;75.00;101160.22;6112894;23;20810;-92
2022/11/11 07:40:30;;;;;;;10.27;8.15;;;;;;;6.08;74.86;101155.00;6098311;23;20159;-92
2022/11/11 07:43:16;;;;;;;9.85;6.72;;;;;;;6.09;75.19;101157.56;6099045;23;20168;-92
2022/11/11 07:46:10;;;;;;;;;;;;;;;;;;;;;
2022/11/11 07:48:55;;;;;;;9.77;6.80;;;;;;;6.17;74.90;101167.84;6098127;23;20163;-93
2022/11/11 07:51:39;;;;;;;8.18;7.22;;;;;;;6.23;75.05;101169.47;6098012;23;20210;-93
2022/11/11 07:54:26;;;;;;;9.38;7.63;;;;;;;6.33;74.92;101160.56;6098649;23;20771;-92
2022/11/11 07:57:32;;;;;;;;;;;;;;;;;;;;;
2022/11/11 08:00:17;;;;;;;7.45;6.50;;;;;;;6.60;74.62;101169.53;6099081;23;20158;-92
2022/11/11 08:03:11;;;;;;;6.07;5.47;;;;;;;6.69;74.39;101169.31;6102000;23;20215;-92
2022/11/11 08:05:55;;;;;;;7.72;4.38;;;;;;;6.75;74.20;101169.22;6099347;23;20153;-92
2022/11/11 08:09:02;;;;;;;4.95;3.58;;;;;;;6.79;74.50;101178.66;6101929;23;20160;-92
2022/11/11 08:14:50;;;;;;;5.72;4.30;;;;;;;6.86;74.42;101182.03;6100341;23;20314;-91
2022/11/11 08:17:38;;;;;;;6.28;5.43;;;;;;;6.97;74.52;101195.69;6104117;23;20409;-92
2022/11/11 08:20:37;;;;;;;4.50;4.10;;;;;;;7.09;74.36;101184.06;6106678;23;20518;-93
2022/11/11 08:23:31;;;;;;;8.45;5.55;;;;;;;7.20;74.21;101187.28;6100500;23;20703;-91
2022/11/11 08:26:15;;;;;;;8.05;5.53;;;;;;;7.40;73.81;101185.91;6101372;23;20217;-92
2022/11/11 08:28:59;;;;;;;6.88;4.70;;;;;;;7.63;73.82;101180.13;6100879;23;20164;-92
2022/11/11 08:31:43;;;;;;;5.90;5.00;;;;;;;7.89;72.85;101176.81;6099953;23;20172;-93
2022/11/11 08:34:31;;;;;;;4.70;4.22;;;;;;;8.28;72.57;101177.44;6099584;23;20704;-92
2022/11/11 08:37:36;;;;;;;5.50;2.55;;;;;;;8.91;71.57;101169.47;6103439;23;20178;-93
2022/11/11 08:40:22;;;;;;;3.22;2.58;;;;;;;9.76;69.87;101171.00;6103450;23;20245;-91
2022/11/11 08:43:33;;;;;;;6.63;4.35;;;;;;;10.47;67.83;101164.03;6105647;23;20173;-91
2022/11/11 08:46:18;;;;;;;3.53;3.22;;;;;;;11.07;66.48;101162.53;6106942;23;20155;-92
2022/11/11 08:49:02;;;;;;;4.07;3.63;;;;;;;11.57;65.36;101165.75;6106997;23;20727;-91
2022/11/11 08:51:49;;;;;;;5.35;3.92;;;;;;;11.91;64.26;101167.81;6109584;23;20212;-92
2022/11/11 08:54:51;;;;;;;5.13;4.40;;;;;;;12.07;63.72;101168.81;6102585;23;20182;-94
2022/11/11 08:57:36;;;;;;;6.07;4.20;;;;;;;12.20;63.41;101169.09;6102320;23;20159;-91
2022/11/11 09:00:22;;;;;;;5.13;3.40;;;;;;;12.30;62.95;101169.56;6101782;23;20600;-92
2022/11/11 09:03:09;;;;;;;7.47;5.93;;;;;;;12.31;62.18;101165.97;6101864;23;20476;-92
2022/11/11 09:05:54;;;;;;;14.07;8.40;;;;;;;12.26;62.22;101162.69;6102120;23;20680;-91
2022/11/11 09:08:41;;;;;;;7.13;5.13;;;;;;;12.24;62.13;101161.94;6100801;23;20383;-92
2022/11/11 09:11:27;;;;;;;5.65;4.70;;;;;;;12.26;61.87;101149.53;6101923;23;20269;-92
2022/11/11 09:14:11;;;;;;;7.55;4.55;;;;;;;12.27;61.76;101151.25;6102555;23;20171;-92
2022/11/11 09:16:58;;;;;;;4.40;3.95;;;;;;;12.23;61.78;101161.06;6100165;23;20159;-92
2022/11/11 09:19:45;;;;;;;12.95;7.78;;;;;;;12.27;61.93;101170.53;6100092;23;20159;-94
2022/11/11 09:22:29;;;;;;;6.38;3.88;;;;;;;12.22;61.41;101161.16;6100140;23;20233;-92
2022/11/11 09:25:14;;;;;;;4.25;3.85;;;;;;;12.10;61.71;101166.06;6099526;23;20246;-92
2022/11/11 09:28:00;;;;;;;4.47;4.05;;;;;;;12.02;62.02;101170.81;6099725;23;20521;-91
2022/11/11 09:30:49;;;;;;;6.80;4.30;;;;;;;11.97;62.42;101157.00;6100525;23;20223;-92
2022/11/11 09:33:38;;;;;;;5.57;4.40;;;;;;;12.09;62.17;101156.41;6101386;23;20681;-92
2022/11/11 09:36:25;;;;;;;13.63;8.00;;;;;;;12.33;61.52;101153.59;6100726;23;20572;-92
2022/11/11 09:39:09;;;;;;;9.05;5.47;;;;;;;12.55;60.99;101153.44;6100365;23;20247;-92
2022/11/11 09:42:21;;;;;;;26.55;13.10;;;;;;;12.75;60.61;101149.88;6101090;23;20155;-91
2022/11/11 09:45:19;;;;;;;9.35;6.45;;;;;;;12.73;60.78;101154.38;6103947;23;20258;-92
2022/11/11 09:48:40;;;;;;;10.88;6.03;;;;;;;12.61;61.36;101154.03;6101778;23;20191;-91
2022/11/11 09:51:52;;;;;;;7.85;5.93;;;;;;;12.47;62.05;101152.94;4631580;23;10001848;-91
2022/11/11 09:54:45;;;;;;;7.22;4.38;;;;;;;12.45;62.39;101153.03;6105983;23;20190;-92
2022/11/11 09:57:37;;;;;;;7.53;5.25;;;;;;;12.20;63.31;101144.53;6101283;23;20216;-92
2022/11/11 10:00:26;;;;;;;6.97;5.03;;;;;;;11.93;64.37;101139.59;6105479;23;20159;-90
2022/11/11 10:03:14;;;;;;;8.27;6.00;;;;;;;11.92;64.86;101149.28;6101609;23;20222;-92
2022/11/11 10:06:18;;;;;;;6.82;5.95;;;;;;;11.89;65.19;101148.56;6105175;23;20187;-91
2022/11/11 10:09:30;;;;;;;11.50;6.72;;;;;;;11.98;65.15;101137.63;6104477;23;20207;-89
2022/11/11 10:12:15;;;;;;;30.55;16.02;;;;;;;12.01;65.21;101126.94;6105278;23;20159;-90
2022/11/11 10:15:00;;;;;;;7.40;6.15;;;;;;;11.96;65.54;101123.66;6079702;23;20183;-90
2022/11/11 10:18:22;;;;;;;8.00;7.20;;;;;;;11.93;66.10;101116.75;6100442;23;20647;-90
2022/11/11 10:21:14;;;;;;;14.02;8.43;;;;;;;12.01;66.14;101119.03;6102473;23;20231;-91
2022/11/11 10:24:15;;;;;;;7.57;5.70;;;;;;;12.04;66.37;101112.78;6100813;23;20191;-91
2022/11/11 10:27:06;;;;;;;8.32;6.97;;;;;;;11.98;66.65;101113.91;6101233;23;20160;-92
2022/11/11 10:29:50;;;;;;;7.55;6.80;;;;;;;11.99;66.74;101113.00;6101400;23;20155;-91
2022/11/11 10:32:35;;;;;;;10.30;7.07;;;;;;;12.10;66.72;101109.88;6101553;23;20639;-94
2022/11/11 10:35:25;;;;;;;7.10;5.85;;;;;;;12.28;66.33;101111.66;6104068;23;20267;-91
2022/11/11 10:38:11;;;;;;;7.60;5.25;;;;;;;12.38;66.35;101112.09;6102330;23;20160;-92
2022/11/11 10:41:06;;;;;;;6.20;5.40;;;;;;;12.44;66.20;101103.88;6109163;23;20167;-93
2022/11/11 10:43:50;;;;;;;7.40;5.38;;;;;;;12.45;66.14;101104.72;6103036;23;20246;-92
2022/11/11 10:46:41;;;;;;;12.13;6.88;;;;;;;12.48;66.31;101097.53;6101208;23;20655;-91
2022/11/11 10:49:39;;;;;;;;;;;;;;;;;;;;;
2022/11/11 10:53:30;;;;;;;;;;;;;;;;;;;;;
2022/11/11 10:56:36;;;;;;;6.07;5.45;;;;;;;12.67;66.12;101094.88;6115401;23;20965;-90
2022/11/11 10:59:31;;;;;;;8.93;6.75;;;;;;;12.62;65.88;101092.47;6086526;23;20198;-92
2022/11/11 11:02:42;;;;;;;10.02;7.57;;;;;;;12.57;66.35;101091.81;6104415;23;20460;-91
2022/11/11 11:05:45;;;;;;;9.88;6.65;;;;;;;12.68;66.39;101088.66;6103756;23;20176;-91
2022/11/11 11:08:37;;;;;;;7.97;5.15;;;;;;;12.76;66.54;101078.59;6100563;23;20191;-91
2022/11/11 11:11:40;;;;;;;18.58;7.72;;;;;;;12.84;66.37;101075.59;6100640;23;20159;-90
2022/11/11 11:14:32;;;;;;;7.90;5.80;;;;;;;12.89;66.58;101068.31;6102826;23;20368;-91
2022/11/11 11:17:22;;;;;;;7.43;5.90;;;;;;;12.96;66.32;101079.38;6104624;23;20552;-91
2022/11/11 11:20:19;;;;;;;7.55;5.47;;;;;;;12.94;66.13;101076.84;6106641;23;20208;-91
2022/11/11 11:23:10;;;;;;;8.32;6.82;;;;;;;12.96;66.35;101067.06;6104666;23;20434;-92
2022/11/11 11:25:59;;;;;;;6.53;5.53;;;;;;;12.96;65.98;101072.34;6112961;23;20183;-90
2022/11/11 11:29:02;;;;;;;6.40;5.05;;;;;;;12.99;66.04;101066.91;6111103;23;20158;-91
2022/11/11 11:31:47;;;;;;;6.88;5.53;;;;;;;12.99;66.14;101074.00;6100568;23;20159;-92
2022/11/11 11:35:01;;;;;;;6.18;5.32;;;;;;;12.97;65.90;101071.41;6106772;23;20521;-91
2022/11/11 11:37:52;;;;;;;5.88;4.82;;;;;;;12.97;65.71;101076.69;6102319;23;20160;-90
2022/11/11 11:41:06;;;;;;;7.43;5.88;;;;;;;12.99;65.77;101072.19;6101634;23;20215;-90
2022/11/11 11:43:50;;;;;;;5.53;4.75;;;;;;;12.99;65.66;101069.56;6089571;23;20207;-91
2022/11/11 11:46:45;;;;;;;5.70;5.00;;;;;;;13.05;65.58;101071.03;6102009;23;20154;-90
2022/11/11 11:49:46;;;;;;;7.93;7.13;;;;;;;13.07;65.48;101070.03;6102532;23;20469;-90
2022/11/11 11:52:46;;;;;;;6.10;5.50;;;;;;;13.10;65.45;101070.81;6110126;23;20243;-90
2022/11/11 11:55:32;;;;;;;5.82;5.10;;;;;;;13.15;65.42;101074.03;6118365;23;20302;-91
2022/11/11 11:58:37;;;;;;;8.48;5.80;;;;;;;13.21;65.38;101071.97;6106953;23;20162;-90
2022/11/11 12:01:53;;;;;;;7.43;4.90;;;;;;;13.30;65.30;101072.44;6105960;23;20693;-91
2022/11/11 12:04:56;;;;;;;9.57;5.25;;;;;;;13.34;65.01;101063.41;6064254;23;20264;-90
2022/11/11 12:07:58;;;;;;;8.50;5.07;;;;;;;13.38;64.88;101067.63;6072350;23;20247;-91
2022/11/11 12:10:49;;;;;;;8.93;5.88;;;;;;;13.43;64.77;101073.53;6074084;23;20160;-91
2022/11/11 12:13:57;;;;;;;8.00;4.60;;;;;;;13.45;64.62;101069.03;6076597;23;20658;-90
2022/11/11 12:16:59;;;;;;;10.27;4.22;;;;;;;13.48;64.67;101072.34;6033232;23;20270;-91
2022/11/11 12:22:53;;;;;;;8.48;4.50;;;;;;;13.54;64.64;101060.59;6053470;23;20966;-89
2022/11/11 12:26:00;;;;;;;10.82;4.95;;;;;;;13.60;64.68;101048.88;6059219;23;20232;-91
2022/11/11 12:28:59;;;;;;;5.97;4.18;;;;;;;13.66;64.62;101054.69;6054267;23;20156;-90
2022/11/11 12:31:53;;;;;;;5.78;4.13;;;;;;;13.69;64.44;101049.25;6048237;23;20277;-90
2022/11/11 12:34:56;;;;;;;5.40;3.70;;;;;;;13.69;64.18;101048.34;6044402;23;20541;-90
2022/11/11 12:37:46;;;;;;;6.82;4.53;;;;;;;13.73;64.46;101047.28;6040438;23;20177;-87
2022/11/11 12:40:40;;;;;;;6.35;4.82;;;;;;;13.76;64.33;101033.91;6044431;23;20157;-90
2022/11/11 12:43:49;;;;;;;6.15;4.20;;;;;;;13.79;64.39;101036.38;6043002;23;20231;-91
2022/11/11 12:46:36;;;;;;;6.70;5.15;;;;;;;13.80;64.21;101032.81;6042039;23;20686;-89
2022/11/11 12:49:34;;;;;;;5.00;4.20;;;;;;;13.81;64.14;101028.38;6044512;23;20263;-90
2022/11/11 12:52:28;;;;;;;4.43;4.03;;;;;;;13.79;63.72;101023.16;6044554;23;20619;-90
2022/11/11 12:55:15;;;;;;;6.47;4.45;;;;;;;13.77;63.92;101024.19;6048329;23;20189;-89
2022/11/11 12:58:05;;;;;;;4.95;3.63;;;;;;;13.77;63.68;101016.25;6052764;23;20625;-89
2022/11/11 13:01:05;;;;;;;5.25;3.90;;;;;;;13.77;63.86;101013.63;6051894;23;20517;-89
2022/11/11 13:04:22;;;;;;;4.57;4.18;;;;;;;13.81;63.38;101021.31;6044489;23;20683;-90
2022/11/11 13:07:31;;;;;;;3.85;3.25;;;;;;;13.84;62.89;101007.94;6047409;23;20767;-90
2022/11/11 13:10:24;;;;;;;6.78;2.72;;;;;;;13.85;62.30;101007.00;6053340;23;20234;-89
2022/11/11 13:13:28;;;;;;;6.82;3.65;;;;;;;13.85;62.02;101007.00;6047402;23;20742;-89
2022/11/11 13:16:17;;;;;;;5.30;2.60;;;;;;;13.85;62.00;101012.28;6047964;23;20209;-89
2022/11/11 13:19:10;;;;;;;5.90;3.28;;;;;;;13.87;61.91;101013.03;6045755;23;20183;-89
2022/11/11 13:22:00;;;;;;;4.25;3.85;;;;;;;13.87;62.01;101009.53;6043160;23;20481;-87
2022/11/11 13:24:44;;;;;;;7.97;3.75;;;;;;;13.88;62.21;101008.59;6045862;23;20270;-90
2022/11/11 13:27:43;;;;;;;7.03;3.03;;;;;;;13.84;62.21;101007.94;6046482;23;20258;-90
2022/11/11 13:30:49;;;;;;;4.53;4.13;;;;;;;13.82;62.68;101007.16;6054922;23;20158;-89
2022/11/11 13:34:10;;;;;;;5.25;3.65;;;;;;;13.79;62.60;101007.31;6060704;23;20437;-90
2022/11/11 13:36:59;;;;;;;3.83;2.63;;;;;;;13.75;62.62;101012.88;6025487;23;20204;-89
2022/11/11 13:40:02;;;;;;;3.30;2.90;;;;;;;13.74;62.90;101014.63;6043444;23;20175;-90
2022/11/11 13:42:51;;;;;;;3.75;2.63;;;;;;;13.71;62.93;101012.16;6047314;23;20571;-90
2022/11/11 13:45:38;;;;;;;4.72;2.85;;;;;;;13.73;62.45;101007.66;6042890;23;20259;-90
2022/11/11 13:48:27;;;;;;;2.83;2.50;;;;;;;13.74;62.47;101009.34;6044143;23;20217;-89
2022/11/11 13:51:34;;;;;;;2.65;2.45;;;;;;;13.76;62.34;101006.66;6042486;23;20179;-90
2022/11/11 13:54:39;;;;;;;3.30;2.80;;;;;;;13.80;62.41;101008.16;6043401;23;20174;-90
2022/11/11 13:57:31;;;;;;;2.90;2.58;;;;;;;13.81;62.31;101012.53;6044555;23;20179;-89
2022/11/11 14:00:19;;;;;;;4.18;2.55;;;;;;;13.82;62.16;101007.16;6046343;23;20180;-89
2022/11/11 14:03:15;;;;;;;5.03;3.83;;;;;;;13.82;62.39;101015.06;6043881;23;20820;-89
2022/11/11 14:06:15;;;;;;;4.40;3.55;;;;;;;13.81;62.48;101012.53;6045691;23;20172;-89
2022/11/11 14:09:06;;;;;;;4.43;3.47;;;;;;;13.82;62.63;101011.59;6045005;23;20180;-91
2022/11/11 14:12:29;;;;;;;5.72;2.95;;;;;;;13.82;62.88;101016.88;6043952;23;20462;-91
2022/11/11 14:15:35;;;;;;;7.78;2.75;;;;;;;13.81;62.85;101013.38;6044081;23;20248;-91
2022/11/11 14:18:19;;;;;;;4.60;2.00;;;;;;;13.80;62.85;101008.16;6044792;23;20200;-90
2022/11/11 14:21:03;;;;;;;3.30;2.03;;;;;;;13.78;63.08;101010.91;6043360;23;20187;-90
2022/11/11 14:23:52;;;;;;;2.22;2.00;;;;;;;13.78;63.10;101021.47;6044537;23;20175;-90
2022/11/11 14:26:36;;;;;;;3.15;1.98;;;;;;;13.78;63.60;101018.84;6043211;23;20589;-89
2022/11/11 14:29:26;;;;;;;2.95;2.08;;;;;;;13.77;63.65;101013.63;6041288;23;20529;-91
2022/11/11 14:32:35;;;;;;;3.08;2.40;;;;;;;13.74;63.81;101017.28;6045023;23;20195;-90
2022/11/11 14:35:25;;;;;;;2.88;2.55;;;;;;;13.71;63.73;101015.66;6044320;23;20311;-90
2022/11/11 14:38:42;;;;;;;3.38;2.15;;;;;;;13.69;63.79;101016.69;6044087;23;20236;-90
2022/11/11 14:42:00;;;;;;;3.70;2.42;;;;;;;13.68;63.85;101014.97;6042993;23;20312;-90
2022/11/11 14:44:45;;;;;;;4.18;2.55;;;;;;;13.65;64.11;101009.88;6041326;23;20770;-91
2022/11/11 14:47:29;;;;;;;2.58;2.40;;;;;;;13.62;64.52;101016.16;6054689;23;20282;-92
